Please help us keep this site up and running!

ABORTED LANDING & GO AROUND at DME/Domodedovo/UUDD B738 S7 УХОД НА 2 КРУГ
METAR: UUDD 011300Z 29007MPS 9999 SCT043 27/15 Q1018 R88/010095 NOSIG
→ Filename:
→ Date: 4 months ago (04.08.2017 09:38)
→ Author:
→ Uploaded by: diems (uploaded 40 files )
→ Approved by moderator: U-HCK
→ License: Freeware - Free version, Unlimited Distribution
 5 
Долго не решался на второй уйти... ZorgsteinKilloo, 4 months ago, #
 5 
Это тренировки или что-то пошло не так? Vaniks, 4 months ago, #
Скорее всего перелет или не по центру зашел. Юрий К., 3 months ago, #
 5 
. pavel1981xxx, 4 months ago, #

You need to authentificate to comment. Please login.